Time;durP1;ratioP1;P1;durP2;ratioP2;P2;SDS_P1;SDS_P2;PMS_P1;PMS_P2;Temp;Humidity;BMP_temperature;BMP_pressure;BME280_temperature;BME280_humidity;BME280_pressure;Samples;Min_cycle;Max_cycle;Signal;HPM_P1;HPM_P2
2022/06/06 00:00:49;;;;;;;2.65;1.48;;;;;;;;;;6216906;23;19996;-86
2022/06/06 00:03:16;;;;;;;4.35;1.55;;;;;;;;;;6217087;23;20012;-87
2022/06/06 00:05:43;;;;;;;4.05;1.60;;;;;;;;;;6190616;23;20021;-85
2022/06/06 00:08:11;;;;;;;4.47;1.90;;;;;;;;;;6190533;23;20007;-88
2022/06/06 00:10:42;;;;;;;5.47;1.98;;;;;;;;;;6192520;23;20009;-85
2022/06/06 00:13:09;;;;;;;4.85;2.50;;;;;;;;;;6190457;23;20090;-85
2022/06/06 00:15:35;;;;;;;3.75;1.95;;;;;;;;;;6190331;23;20087;-85
2022/06/06 00:18:05;;;;;;;4.57;2.05;;;;;;;;;;6190309;23;20005;-84
2022/06/06 00:20:32;;;;;;;4.50;1.83;;;;;;;;;;6190355;23;20091;-88
2022/06/06 00:22:58;;;;;;;5.65;2.03;;;;;;;;;;6190455;23;20364;-86
2022/06/06 00:25:25;;;;;;;3.15;1.63;;;;;;;;;;6190372;23;20020;-84
2022/06/06 00:27:51;;;;;;;4.22;1.52;;;;;;;;;;6216409;23;19996;-85
2022/06/06 00:30:18;;;;;;;6.18;1.73;;;;;;;;;;6190265;23;20011;-88
2022/06/06 00:35:29;;;;;;;4.95;1.70;;;;;;;;;;6216581;23;20022;-89
2022/06/06 00:37:56;;;;;;;4.43;1.30;;;;;;;;;;6190197;23;20001;-86
2022/06/06 00:40:24;;;;;;;5.03;1.40;;;;;;;;;;6190000;23;20009;-86
2022/06/06 00:42:50;;;;;;;3.35;1.35;;;;;;;;;;6189954;23;20074;-87
2022/06/06 00:45:19;;;;;;;3.47;1.17;;;;;;;;;;6190065;23;20013;-87
2022/06/06 00:47:48;;;;;;;2.28;0.90;;;;;;;;;;6190144;23;20032;-84
2022/06/06 00:50:16;;;;;;;3.78;0.75;;;;;;;;;;6189956;23;20063;-87
2022/06/06 00:52:43;;;;;;;7.45;1.00;;;;;;;;;;6190023;23;20009;-85
2022/06/06 00:55:15;;;;;;;3.40;0.75;;;;;;;;;;6190257;23;20005;-85
2022/06/06 00:57:45;;;;;;;3.00;0.70;;;;;;;;;;6189934;23;20005;-89
2022/06/06 01:00:13;;;;;;;4.10;0.65;;;;;;;;;;6190044;23;20009;-88
2022/06/06 01:02:40;;;;;;;3.15;0.65;;;;;;;;;;6189929;23;20070;-85
2022/06/06 01:05:07;;;;;;;3.97;0.80;;;;;;;;;;6190352;23;20312;-87
2022/06/06 01:07:34;;;;;;;2.83;0.60;;;;;;;;;;6190216;23;20012;-88
2022/06/06 01:10:00;;;;;;;3.17;0.68;;;;;;;;;;6216417;23;20063;-85
2022/06/06 01:12:27;;;;;;;1.98;0.60;;;;;;;;;;6190054;23;20415;-85
2022/06/06 01:14:59;;;;;;;2.38;0.50;;;;;;;;;;6216680;23;20008;-84
2022/06/06 01:17:25;;;;;;;3.30;0.63;;;;;;;;;;6190015;23;20008;-85
2022/06/06 01:19:51;;;;;;;3.92;0.70;;;;;;;;;;6189959;23;20009;-86
2022/06/06 01:22:20;;;;;;;2.33;0.55;;;;;;;;;;6190213;23;20005;-86
2022/06/06 01:24:56;;;;;;;4.47;0.80;;;;;;;;;;6189880;23;20016;-85
2022/06/06 01:27:25;;;;;;;3.33;0.57;;;;;;;;;;6189688;23;20506;-84
2022/06/06 01:29:54;;;;;;;1.50;0.32;;;;;;;;;;6189951;23;20339;-83
2022/06/06 01:32:22;;;;;;;5.00;0.60;;;;;;;;;;6189700;23;20338;-85
2022/06/06 01:34:50;;;;;;;4.05;0.75;;;;;;;;;;6191502;23;20012;-86
2022/06/06 01:37:37;;;;;;;3.83;0.70;;;;;;;;;;6190382;23;20001;-85
2022/06/06 01:40:05;;;;;;;2.83;0.60;;;;;;;;;;6216263;23;20001;-85
2022/06/06 01:42:34;;;;;;;2.53;0.70;;;;;;;;;;6167211;23;20072;-85
2022/06/06 01:45:01;;;;;;;2.38;0.68;;;;;;;;;;6159449;23;20009;-84
2022/06/06 01:47:33;;;;;;;1.92;0.60;;;;;;;;;;6159850;23;20088;-85
2022/06/06 01:50:00;;;;;;;2.58;0.82;;;;;;;;;;6159910;23;20001;-88
2022/06/06 01:52:26;;;;;;;3.40;1.00;;;;;;;;;;6160072;23;20450;-84
2022/06/06 01:54:53;;;;;;;3.03;0.85;;;;;;;;;;6159741;23;20015;-87
2022/06/06 01:57:20;;;;;;;3.30;0.85;;;;;;;;;;6161405;23;20088;-88
2022/06/06 01:59:46;;;;;;;5.57;0.70;;;;;;;;;;6161552;23;20009;-85
2022/06/06 02:02:12;;;;;;;2.75;0.88;;;;;;;;;;6161947;23;20005;-85
2022/06/06 02:04:39;;;;;;;2.38;0.60;;;;;;;;;;6161163;23;20494;-84
2022/06/06 02:07:06;;;;;;;2.17;0.60;;;;;;;;;;6161314;23;20139;-83
2022/06/06 02:09:33;;;;;;;6.55;1.00;;;;;;;;;;6187766;23;20027;-85
2022/06/06 02:12:02;;;;;;;3.97;1.02;;;;;;;;;;6161817;23;20017;-91
2022/06/06 02:14:28;;;;;;;2.47;0.90;;;;;;;;;;6162253;23;20032;-90
2022/06/06 02:16:55;;;;;;;4.18;1.10;;;;;;;;;;6161627;23;20013;-83
2022/06/06 02:19:21;;;;;;;2.72;1.23;;;;;;;;;;6161549;23;20316;-88
2022/06/06 02:21:47;;;;;;;1.70;1.00;;;;;;;;;;6187864;23;20012;-83
2022/06/06 02:24:14;;;;;;;4.55;1.50;;;;;;;;;;6161700;23;20005;-85
2022/06/06 02:26:41;;;;;;;4.25;1.65;;;;;;;;;;6161712;23;20005;-85
2022/06/06 02:29:08;;;;;;;5.38;1.58;;;;;;;;;;6161172;23;20009;-86
2022/06/06 02:31:37;;;;;;;2.65;1.70;;;;;;;;;;6161443;23;20033;-89
2022/06/06 02:34:04;;;;;;;3.15;1.50;;;;;;;;;;6161449;23;20012;-84
2022/06/06 02:36:31;;;;;;;2.83;2.22;;;;;;;;;;6161203;23;20005;-84
2022/06/06 02:38:57;;;;;;;3.78;1.90;;;;;;;;;;6187740;23;20012;-88
2022/06/06 02:41:25;;;;;;;5.18;2.10;;;;;;;;;;6161135;23;20017;-85
2022/06/06 02:43:52;;;;;;;5.90;1.90;;;;;;;;;;6161116;23;20015;-85
2022/06/06 02:46:19;;;;;;;4.43;2.38;;;;;;;;;;6161367;23;20051;-87
2022/06/06 02:48:45;;;;;;;4.18;2.85;;;;;;;;;;6161487;23;20007;-84
2022/06/06 02:51:12;;;;;;;4.15;2.70;;;;;;;;;;6187171;23;20005;-84
2022/06/06 02:53:38;;;;;;;4.22;3.10;;;;;;;;;;6187272;23;20430;-85
2022/06/06 02:56:05;;;;;;;3.72;3.28;;;;;;;;;;6186945;23;20068;-84
2022/06/06 02:58:31;;;;;;;4.07;3.00;;;;;;;;;;6187523;23;20082;-84
2022/06/06 03:01:02;;;;;;;3.28;2.88;;;;;;;;;;6161090;23;20009;-83
2022/06/06 03:03:29;;;;;;;5.57;3.05;;;;;;;;;;6161188;23;20055;-83
2022/06/06 03:06:03;;;;;;;4.88;3.15;;;;;;;;;;6160830;23;20023;-86
2022/06/06 03:08:38;;;;;;;4.45;2.90;;;;;;;;;;6161268;23;20029;-85
2022/06/06 03:11:15;;;;;;;9.73;3.28;;;;;;;;;;6160791;23;20059;-84
2022/06/06 03:13:54;;;;;;;4.55;3.00;;;;;;;;;;6161066;23;20031;-83
2022/06/06 03:21:58;;;;;;;6.05;3.15;;;;;;;;;;6186932;23;20016;-84
2022/06/06 03:24:24;;;;;;;5.43;3.45;;;;;;;;;;6161023;23;20005;-85
2022/06/06 03:27:09;;;;;;;4.90;3.65;;;;;;;;;;6186963;23;20061;-84
2022/06/06 03:29:55;;;;;;;4.35;3.83;;;;;;;;;;6160748;23;20076;-85
2022/06/06 03:32:29;;;;;;;4.80;3.88;;;;;;;;;;6161165;23;20013;-85
2022/06/06 03:35:14;;;;;;;4.97;4.00;;;;;;;;;;6161095;23;20001;-85
2022/06/06 03:37:52;;;;;;;4.25;3.70;;;;;;;;;;6160999;23;20005;-89
2022/06/06 03:40:37;;;;;;;5.03;4.20;;;;;;;;;;6161096;23;20013;-85
2022/06/06 03:43:12;;;;;;;5.70;3.70;;;;;;;;;;6160632;23;20096;-85
2022/06/06 03:45:49;;;;;;;4.30;3.50;;;;;;;;;;6160476;23;20013;-85
2022/06/06 03:48:29;;;;;;;3.80;3.28;;;;;;;;;;6160830;23;20009;-84
2022/06/06 03:51:13;;;;;;;3.63;3.25;;;;;;;;;;6160926;23;20005;-86
2022/06/06 03:53:55;;;;;;;5.20;3.08;;;;;;;;;;6186987;23;20079;-85
2022/06/06 03:56:34;;;;;;;3.67;3.33;;;;;;;;;;6160704;23;20026;-84
2022/06/06 03:59:00;;;;;;;4.53;3.15;;;;;;;;;;6160748;23;20013;-85
2022/06/06 04:01:27;;;;;;;5.00;3.80;;;;;;;;;;6160726;23;20013;-84
2022/06/06 04:03:54;;;;;;;3.75;3.10;;;;;;;;;;6186778;23;20005;-85
2022/06/06 04:06:20;;;;;;;4.78;3.47;;;;;;;;;;6186829;23;20013;-85
2022/06/06 04:08:47;;;;;;;4.45;3.13;;;;;;;;;;6160462;23;20442;-84
2022/06/06 04:11:29;;;;;;;4.53;3.00;;;;;;;;;;6186750;23;20072;-85
2022/06/06 04:14:13;;;;;;;4.35;2.88;;;;;;;;;;6160601;23;20009;-84
2022/06/06 04:16:49;;;;;;;4.18;2.80;;;;;;;;;;6160832;23;20005;-85
2022/06/06 04:19:15;;;;;;;5.78;3.60;;;;;;;;;;6160125;23;20060;-84
2022/06/06 04:21:57;;;;;;;4.13;2.92;;;;;;;;;;6186630;23;20001;-85
2022/06/06 04:24:41;;;;;;;3.83;2.60;;;;;;;;;;6160979;23;20011;-85
2022/06/06 04:27:14;;;;;;;3.95;2.22;;;;;;;;;;6160584;23;20431;-88
2022/06/06 04:29:49;;;;;;;5.03;2.30;;;;;;;;;;6160700;23;20005;-88
2022/06/06 04:32:25;;;;;;;5.00;2.75;;;;;;;;;;6159930;23;20005;-87
2022/06/06 04:34:54;;;;;;;4.25;2.55;;;;;;;;;;6160354;23;20005;-89
2022/06/06 04:37:30;;;;;;;3.53;2.05;;;;;;;;;;6160536;23;20004;-86
2022/06/06 04:40:01;;;;;;;2.60;1.50;;;;;;;;;;6160542;23;20005;-86
2022/06/06 04:42:36;;;;;;;2.35;1.20;;;;;;;;;;6207680;23;20013;-89
2022/06/06 04:45:08;;;;;;;2.65;1.20;;;;;;;;;;6191619;23;20013;-85
2022/06/06 04:47:36;;;;;;;2.17;1.10;;;;;;;;;;6191511;23;20457;-88
2022/06/06 04:50:07;;;;;;;1.80;0.90;;;;;;;;;;6190321;23;20080;-89
2022/06/06 04:52:35;;;;;;;3.35;1.05;;;;;;;;;;6190642;23;20083;-89
2022/06/06 04:55:02;;;;;;;2.05;1.10;;;;;;;;;;6190368;23;20004;-88
2022/06/06 04:57:30;;;;;;;1.75;0.80;;;;;;;;;;6190000;23;20017;-88
2022/06/06 04:59:58;;;;;;;1.88;1.00;;;;;;;;;;6190198;23;20005;-84
2022/06/06 05:02:25;;;;;;;3.53;0.90;;;;;;;;;;6216601;23;20000;-88
2022/06/06 05:04:51;;;;;;;2.45;1.00;;;;;;;;;;6216555;23;20442;-87
2022/06/06 05:07:18;;;;;;;4.65;1.10;;;;;;;;;;6189720;23;20516;-86
2022/06/06 05:09:50;;;;;;;1.60;0.90;;;;;;;;;;6190071;23;20423;-86
2022/06/06 05:12:22;;;;;;;3.13;0.83;;;;;;;;;;6189983;23;20016;-85
2022/06/06 05:15:08;;;;;;;2.55;1.13;;;;;;;;;;6190181;23;20260;-89
2022/06/06 05:17:52;;;;;;;1.65;0.70;;;;;;;;;;6189729;23;20005;-87
2022/06/06 05:20:38;;;;;;;3.42;0.90;;;;;;;;;;6190119;23;20051;-87
2022/06/06 05:23:13;;;;;;;4.45;0.70;;;;;;;;;;6190082;23;20070;-87
2022/06/06 05:25:39;;;;;;;3.60;0.90;;;;;;;;;;6189755;23;20020;-87
2022/06/06 05:28:24;;;;;;;2.28;0.80;;;;;;;;;;6216553;23;20007;-88
2022/06/06 05:31:01;;;;;;;2.55;0.90;;;;;;;;;;6192111;23;20004;-88
2022/06/06 05:33:27;;;;;;;1.90;0.75;;;;;;;;;;6192126;23;20062;-87
2022/06/06 05:36:18;;;;;;;1.38;0.80;;;;;;;;;;6191920;23;20348;-88
2022/06/06 05:38:58;;;;;;;4.95;1.35;;;;;;;;;;6191978;23;20009;-87
2022/06/06 05:41:30;;;;;;;2.65;1.10;;;;;;;;;;6191249;23;20020;-88
2022/06/06 05:43:56;;;;;;;3.25;1.23;;;;;;;;;;6192011;23;20009;-88
2022/06/06 05:46:41;;;;;;;3.00;1.27;;;;;;;;;;6192101;23;20016;-87
2022/06/06 05:49:13;;;;;;;2.60;1.23;;;;;;;;;;6192247;23;20004;-86
2022/06/06 05:52:03;;;;;;;3.00;1.30;;;;;;;;;;6192169;23;20009;-86
2022/06/06 05:54:41;;;;;;;3.25;1.58;;;;;;;;;;6192099;23;20016;-86
2022/06/06 05:57:26;;;;;;;2.38;1.67;;;;;;;;;;6192011;23;20415;-88
2022/06/06 05:59:55;;;;;;;3.92;1.98;;;;;;;;;;6191596;23;20012;-85
2022/06/06 06:02:31;;;;;;;4.57;2.53;;;;;;;;;;6192250;23;20008;-87
2022/06/06 06:05:16;;;;;;;3.78;3.25;;;;;;;;;;6192163;23;20013;-88
2022/06/06 06:07:42;;;;;;;4.25;2.83;;;;;;;;;;6218092;23;20000;-84
2022/06/06 06:10:08;;;;;;;5.13;2.65;;;;;;;;;;6191458;23;20091;-83
2022/06/06 06:12:50;;;;;;;6.20;2.42;;;;;;;;;;6191906;23;20062;-87
2022/06/06 06:15:37;;;;;;;4.05;1.90;;;;;;;;;;6218343;23;20005;-88
2022/06/06 06:18:07;;;;;;;2.70;1.88;;;;;;;;;;6192014;23;20347;-90
2022/06/06 06:20:35;;;;;;;5.32;1.98;;;;;;;;;;6196219;23;20008;-86
2022/06/06 06:23:06;;;;;;;3.00;1.40;;;;;;;;;;6191766;23;20043;-88
2022/06/06 06:25:34;;;;;;;2.15;1.42;;;;;;;;;;6191968;23;20020;-88
2022/06/06 06:28:04;;;;;;;3.83;2.10;;;;;;;;;;6191771;23;20011;-86
2022/06/06 06:30:33;;;;;;;3.08;2.00;;;;;;;;;;6191901;23;20008;-88
2022/06/06 06:33:09;;;;;;;2.65;1.90;;;;;;;;;;6191946;23;20005;-89
2022/06/06 06:35:47;;;;;;;5.47;1.88;;;;;;;;;;6192019;23;20008;-88
2022/06/06 06:38:23;;;;;;;3.80;1.60;;;;;;;;;;6191830;23;20374;-86
2022/06/06 06:41:08;;;;;;;2.55;1.30;;;;;;;;;;6191286;23;20434;-86
2022/06/06 06:43:47;;;;;;;2.08;1.02;;;;;;;;;;6191844;23;20346;-87
2022/06/06 06:46:15;;;;;;;2.75;1.00;;;;;;;;;;6191332;23;20311;-87
2022/06/06 06:48:45;;;;;;;2.25;0.93;;;;;;;;;;6191631;23;20063;-89
2022/06/06 06:51:11;;;;;;;1.67;0.82;;;;;;;;;;6191703;23;20007;-86
2022/06/06 06:53:41;;;;;;;1.83;0.82;;;;;;;;;;6191786;23;20011;-87
2022/06/06 06:56:13;;;;;;;1.73;0.80;;;;;;;;;;6191480;23;20007;-87
2022/06/06 06:58:40;;;;;;;;;;;;;;;;;;6219284;23;20009;-87
2022/06/06 07:01:07;;;;;;;3.97;0.80;;;;;;;;;;6219856;23;19904;-85
2022/06/06 07:09:12;;;;;;;2.70;0.90;;;;;;;;;;6228092;23;20423;-84
2022/06/06 07:11:57;;;;;;;2.38;0.73;;;;;;;;;;6191240;23;20008;-88
2022/06/06 07:14:29;;;;;;;4.18;0.80;;;;;;;;;;6191212;23;20007;-87
2022/06/06 07:16:59;;;;;;;1.33;0.80;;;;;;;;;;6191365;23;20004;-84
2022/06/06 07:19:39;;;;;;;1.95;0.63;;;;;;;;;;6191128;23;20000;-88
2022/06/06 07:22:06;;;;;;;2.80;0.40;;;;;;;;;;6191074;23;20009;-87
2022/06/06 07:24:32;;;;;;;1.10;0.60;;;;;;;;;;6191107;23;20011;-87
2022/06/06 07:27:00;;;;;;;3.60;0.70;;;;;;;;;;6191379;23;20044;-88
2022/06/06 07:29:26;;;;;;;2.47;0.77;;;;;;;;;;6190484;23;20035;-85
2022/06/06 07:31:56;;;;;;;4.82;0.90;;;;;;;;;;6190997;23;20134;-84
2022/06/06 07:34:26;;;;;;;2.72;0.65;;;;;;;;;;6190871;23;20008;-85
2022/06/06 07:36:53;;;;;;;2.50;0.60;;;;;;;;;;6190819;23;20028;-85
2022/06/06 07:39:23;;;;;;;1.80;0.60;;;;;;;;;;6190409;23;20008;-85
2022/06/06 07:42:02;;;;;;;3.53;0.85;;;;;;;;;;6190378;23;20027;-85
2022/06/06 07:44:48;;;;;;;2.88;0.65;;;;;;;;;;6191313;23;20014;-84
2022/06/06 07:47:32;;;;;;;2.45;0.98;;;;;;;;;;6190544;23;20016;-84
2022/06/06 07:50:11;;;;;;;6.03;1.10;;;;;;;;;;6190734;23;20027;-87
2022/06/06 07:52:41;;;;;;;4.55;0.93;;;;;;;;;;6190552;23;20009;-86
2022/06/06 07:55:22;;;;;;;2.53;1.20;;;;;;;;;;6196260;23;20461;-84
2022/06/06 07:57:55;;;;;;;2.40;1.10;;;;;;;;;;6192124;23;20005;-83
2022/06/06 08:00:22;;;;;;;3.17;1.40;;;;;;;;;;6216714;23;20009;-82
2022/06/06 08:02:56;;;;;;;3.17;1.15;;;;;;;;;;6190108;23;20083;-83
2022/06/06 08:05:22;;;;;;;3.00;1.20;;;;;;;;;;6190294;23;20019;-83
2022/06/06 08:07:51;;;;;;;3.55;1.10;;;;;;;;;;6216895;23;20007;-83
2022/06/06 08:10:18;;;;;;;5.13;1.27;;;;;;;;;;6190452;23;20312;-86
2022/06/06 08:12:44;;;;;;;3.50;1.20;;;;;;;;;;6190193;23;20000;-83
2022/06/06 08:15:23;;;;;;;2.67;1.33;;;;;;;;;;6217037;23;20067;-84
2022/06/06 08:18:03;;;;;;;3.72;1.33;;;;;;;;;;6193576;23;20067;-84
2022/06/06 08:20:45;;;;;;;2.78;1.20;;;;;;;;;;6190291;23;20033;-84
2022/06/06 08:23:13;;;;;;;4.68;1.35;;;;;;;;;;6190100;23;20039;-83
2022/06/06 08:25:41;;;;;;;4.97;1.92;;;;;;;;;;6189930;23;20013;-83
2022/06/06 08:28:08;;;;;;;2.22;1.30;;;;;;;;;;6189890;23;20521;-84
2022/06/06 08:30:35;;;;;;;5.05;1.40;;;;;;;;;;6216858;23;20058;-86
2022/06/06 08:33:02;;;;;;;2.50;1.15;;;;;;;;;;6216538;23;20001;-84
2022/06/06 08:35:34;;;;;;;4.57;1.67;;;;;;;;;;6190080;23;20063;-86
2022/06/06 08:38:09;;;;;;;2.85;1.17;;;;;;;;;;6190112;23;20005;-84
2022/06/06 08:40:39;;;;;;;2.92;1.40;;;;;;;;;;6190131;23;20009;-86
2022/06/06 08:43:08;;;;;;;3.33;1.10;;;;;;;;;;6216239;23;20063;-84
2022/06/06 08:45:34;;;;;;;6.47;1.40;;;;;;;;;;6189566;23;20100;-85
2022/06/06 08:48:17;;;;;;;3.80;1.30;;;;;;;;;;6216873;23;20072;-85
2022/06/06 08:51:06;;;;;;;5.60;1.52;;;;;;;;;;6190078;23;20104;-87
2022/06/06 08:53:44;;;;;;;2.47;1.25;;;;;;;;;;6216639;23;20330;-86
2022/06/06 08:56:13;;;;;;;4.18;1.70;;;;;;;;;;6192376;23;20005;-87
2022/06/06 08:58:42;;;;;;;3.67;1.75;;;;;;;;;;6216656;23;20004;-86
2022/06/06 09:01:08;;;;;;;5.45;1.80;;;;;;;;;;6190244;23;20055;-87
2022/06/06 09:03:49;;;;;;;6.53;1.92;;;;;;;;;;6190006;23;20391;-84
2022/06/06 09:06:34;;;;;;;4.72;1.60;;;;;;;;;;6218556;23;20012;-88
2022/06/06 09:09:39;;;;;;;4.03;1.30;;;;;;;;;;6192148;23;20009;-84
2022/06/06 09:12:23;;;;;;;2.78;1.60;;;;;;;;;;6097823;23;20013;-88
2022/06/06 09:15:07;;;;;;;5.00;1.50;;;;;;;;;;6073865;23;20011;-88
2022/06/06 09:17:38;;;;;;;6.28;1.52;;;;;;;;;;6158954;23;20453;-86
2022/06/06 09:20:21;;;;;;;2.90;1.40;;;;;;;;;;6191020;23;20039;-84
2022/06/06 09:22:57;;;;;;;2.40;1.55;;;;;;;;;;6191888;23;20035;-83
2022/06/06 09:25:26;;;;;;;2.22;1.15;;;;;;;;;;6192011;23;20095;-90
2022/06/06 09:28:11;;;;;;;4.95;1.33;;;;;;;;;;6191692;23;20032;-86
2022/06/06 09:30:46;;;;;;;2.88;1.17;;;;;;;;;;6218740;23;19997;-87
2022/06/06 09:33:31;;;;;;;6.63;1.30;;;;;;;;;;6191998;23;20030;-86
2022/06/06 09:36:03;;;;;;;2.90;1.05;;;;;;;;;;6191665;23;20004;-88
2022/06/06 09:38:38;;;;;;;4.28;1.20;;;;;;;;;;6191734;23;20039;-87
2022/06/06 09:41:05;;;;;;;3.90;1.00;;;;;;;;;;6192177;23;20005;-87
2022/06/06 09:43:31;;;;;;;1.77;0.88;;;;;;;;;;6218309;23;20484;-87
2022/06/06 09:46:16;;;;;;;3.50;0.95;;;;;;;;;;6191496;23;20016;-89
2022/06/06 09:48:51;;;;;;;4.78;1.20;;;;;;;;;;6191572;23;20005;-87
2022/06/06 09:51:20;;;;;;;4.53;1.10;;;;;;;;;;6191562;23;20071;-87
2022/06/06 09:59:56;;;;;;;2.20;1.05;;;;;;;;;;6218380;23;20011;-86
2022/06/06 10:02:36;;;;;;;2.85;1.13;;;;;;;;;;6191663;23;20374;-87
2022/06/06 10:05:11;;;;;;;1.60;0.95;;;;;;;;;;6191369;23;20342;-88
2022/06/06 10:07:41;;;;;;;2.17;0.82;;;;;;;;;;6191286;23;20008;-87
2022/06/06 10:10:22;;;;;;;3.83;1.23;;;;;;;;;;6191262;23;20032;-89
2022/06/06 10:12:51;;;;;;;2.05;0.77;;;;;;;;;;6191195;23;20063;-84
2022/06/06 10:15:23;;;;;;;1.85;0.80;;;;;;;;;;6191272;23;20092;-87
2022/06/06 10:17:49;;;;;;;;;;;;;;;;;;6191435;23;20009;-85
2022/06/06 10:20:26;;;;;;;2.17;0.80;;;;;;;;;;6191358;23;19900;-87
2022/06/06 10:23:04;;;;;;;2.78;0.90;;;;;;;;;;6191939;23;20004;-88
2022/06/06 10:25:49;;;;;;;2.03;0.80;;;;;;;;;;6191401;23;20004;-86
2022/06/06 10:28:18;;;;;;;2.05;0.80;;;;;;;;;;6191472;23;20004;-87
2022/06/06 10:31:07;;;;;;;4.32;0.98;;;;;;;;;;6218254;23;19997;-87
2022/06/06 10:33:45;;;;;;;1.60;0.82;;;;;;;;;;6216124;23;20005;-87
2022/06/06 10:36:20;;;;;;;1.98;0.77;;;;;;;;;;6191415;23;20036;-88
2022/06/06 10:39:04;;;;;;;1.77;0.90;;;;;;;;;;6191420;23;20008;-87
2022/06/06 10:41:49;;;;;;;2.33;0.80;;;;;;;;;;6190936;23;20051;-85
2022/06/06 10:44:21;;;;;;;2.10;0.80;;;;;;;;;;6191582;23;20066;-87
2022/06/06 10:46:47;;;;;;;2.00;0.95;;;;;;;;;;6191410;23;20020;-88
2022/06/06 10:49:43;;;;;;;2.28;0.88;;;;;;;;;;6191585;23;20439;-86
2022/06/06 10:52:15;;;;;;;2.75;1.00;;;;;;;;;;6111648;23;20437;-86
2022/06/06 10:55:03;;;;;;;4.22;1.40;;;;;;;;;;6217852;23;20143;-86
2022/06/06 10:57:35;;;;;;;2.88;1.20;;;;;;;;;;6191209;23;20067;-87
2022/06/06 11:00:10;;;;;;;1.77;1.00;;;;;;;;;;6192574;23;20426;-84
2022/06/06 11:02:42;;;;;;;2.17;1.20;;;;;;;;;;6219281;23;20020;-88
2022/06/06 11:05:23;;;;;;;6.40;1.30;;;;;;;;;;6190412;23;20008;-86
2022/06/06 11:08:08;;;;;;;1.50;1.10;;;;;;;;;;6190818;23;20023;-84
2022/06/06 11:10:57;;;;;;;3.38;1.15;;;;;;;;;;6190606;23;20008;-84
2022/06/06 11:13:23;;;;;;;2.63;1.10;;;;;;;;;;6148982;23;20334;-84
2022/06/06 11:16:08;;;;;;;3.08;1.10;;;;;;;;;;6217019;23;20426;-86
2022/06/06 11:19:03;;;;;;;2.53;1.30;;;;;;;;;;6190375;23;20485;-85
2022/06/06 11:21:37;;;;;;;3.53;1.10;;;;;;;;;;6217205;23;20005;-85
2022/06/06 11:24:22;;;;;;;2.53;1.20;;;;;;;;;;6190764;23;20087;-85
2022/06/06 11:26:48;;;;;;;2.22;1.02;;;;;;;;;;6217120;23;20008;-87
2022/06/06 11:29:17;;;;;;;2.13;1.27;;;;;;;;;;6192704;23;20028;-84
2022/06/06 11:31:56;;;;;;;2.55;1.02;;;;;;;;;;6191721;23;20032;-86
2022/06/06 11:34:41;;;;;;;3.25;0.98;;;;;;;;;;6190931;23;20023;-88
2022/06/06 11:37:19;;;;;;;3.13;1.17;;;;;;;;;;6190870;23;20004;-85
2022/06/06 11:39:48;;;;;;;2.75;1.40;;;;;;;;;;6190826;23;20005;-85
2022/06/06 11:42:43;;;;;;;4.47;1.30;;;;;;;;;;6190624;23;20024;-88
2022/06/06 11:45:18;;;;;;;4.47;2.10;;;;;;;;;;6217265;23;20438;-87
2022/06/06 11:47:51;;;;;;;3.88;1.30;;;;;;;;;;6190955;23;20005;-86
2022/06/06 11:50:23;;;;;;;2.17;1.30;;;;;;;;;;6217403;23;20004;-86
2022/06/06 11:53:02;;;;;;;3.35;1.13;;;;;;;;;;6190738;23;20012;-87
2022/06/06 11:55:41;;;;;;;3.65;1.60;;;;;;;;;;6190805;23;20004;-88
2022/06/06 11:58:26;;;;;;;4.18;1.55;;;;;;;;;;6190784;23;20492;-87
2022/06/06 12:00:55;;;;;;;5.05;1.80;;;;;;;;;;6190520;23;20015;-84
2022/06/06 12:03:47;;;;;;;3.40;1.40;;;;;;;;;;6190323;23;20011;-87
2022/06/06 12:06:14;;;;;;;2.80;0.97;;;;;;;;;;6147139;23;20009;-85
2022/06/06 12:08:40;;;;;;;1.65;1.10;;;;;;;;;;6190564;23;20244;-84
2022/06/06 12:11:30;;;;;;;3.67;1.08;;;;;;;;;;6190446;23;20019;-85
2022/06/06 12:14:16;;;;;;;1.77;0.80;;;;;;;;;;6161120;23;20008;-85
2022/06/06 12:16:42;;;;;;;4.00;1.00;;;;;;;;;;6190385;23;20008;-90
2022/06/06 12:19:15;;;;;;;3.15;1.15;;;;;;;;;;6190092;23;20087;-91
2022/06/06 12:21:44;;;;;;;1.92;0.90;;;;;;;;;;6190611;23;20430;-89
2022/06/06 12:24:33;;;;;;;1.70;1.10;;;;;;;;;;6190427;23;20008;-87
2022/06/06 12:27:15;;;;;;;2.30;1.08;;;;;;;;;;6160954;23;20016;-87
2022/06/06 12:30:00;;;;;;;2.88;1.10;;;;;;;;;;6216951;23;20334;-90
2022/06/06 12:32:43;;;;;;;2.50;0.90;;;;;;;;;;6190166;23;20012;-85
2022/06/06 12:35:14;;;;;;;1.67;0.77;;;;;;;;;;6190315;23;20063;-85
2022/06/06 12:37:46;;;;;;;2.35;0.90;;;;;;;;;;6216437;23;20000;-85
2022/06/06 12:40:15;;;;;;;2.70;1.00;;;;;;;;;;6192955;23;20008;-86
2022/06/06 12:43:00;;;;;;;2.53;0.90;;;;;;;;;;6216810;23;20019;-89
2022/06/06 12:45:26;;;;;;;1.67;0.82;;;;;;;;;;6190051;23;20016;-87
2022/06/06 12:48:07;;;;;;;3.42;1.20;;;;;;;;;;6190493;23;20031;-92
2022/06/06 12:50:54;;;;;;;2.20;0.77;;;;;;;;;;6190119;23;20035;-87
2022/06/06 12:53:29;;;;;;;1.60;1.00;;;;;;;;;;6156304;23;20007;-86
2022/06/06 12:56:25;;;;;;;2.00;0.80;;;;;;;;;;6190142;23;20091;-88
2022/06/06 12:58:57;;;;;;;5.50;1.20;;;;;;;;;;6190084;23;20334;-86
2022/06/06 13:01:38;;;;;;;2.85;1.00;;;;;;;;;;6216803;23;20001;-87
2022/06/06 13:04:10;;;;;;;2.72;0.90;;;;;;;;;;6189602;23;20009;-84
2022/06/06 13:06:41;;;;;;;2.38;0.90;;;;;;;;;;6189802;23;20012;-85
2022/06/06 13:09:22;;;;;;;2.28;1.00;;;;;;;;;;6214515;23;20005;-87
2022/06/06 13:12:02;;;;;;;2.05;1.00;;;;;;;;;;6219374;23;20355;-86
2022/06/06 13:14:28;;;;;;;2.25;1.13;;;;;;;;;;6216286;23;19997;-87
2022/06/06 13:17:10;;;;;;;3.25;1.00;;;;;;;;;;6189938;23;20023;-86
2022/06/06 13:19:44;;;;;;;1.30;0.90;;;;;;;;;;6189722;23;20051;-87
2022/06/06 13:22:29;;;;;;;2.58;0.90;;;;;;;;;;6190161;23;20508;-86
2022/06/06 13:25:17;;;;;;;1.58;1.00;;;;;;;;;;6216600;23;20001;-85
2022/06/06 13:27:52;;;;;;;1.75;1.02;;;;;;;;;;6145586;23;20004;-86
2022/06/06 13:30:20;;;;;;;2.13;1.23;;;;;;;;;;6189971;23;20028;-86
2022/06/06 13:32:46;;;;;;;4.50;1.10;;;;;;;;;;6214808;23;20106;-84
2022/06/06 13:35:42;;;;;;;3.22;1.15;;;;;;;;;;6189681;23;20009;-84
2022/06/06 13:38:08;;;;;;;3.85;1.20;;;;;;;;;;6171727;23;20000;-87
2022/06/06 13:40:44;;;;;;;4.20;1.17;;;;;;;;;;6189462;23;20095;-83
2022/06/06 13:43:18;;;;;;;1.15;0.80;;;;;;;;;;6216273;23;20009;-83
2022/06/06 13:46:13;;;;;;;1.58;0.90;;;;;;;;;;6189773;23;20047;-84
2022/06/06 13:48:58;;;;;;;2.30;0.80;;;;;;;;;;6190896;23;20044;-83
2022/06/06 13:51:25;;;;;;;2.85;1.10;;;;;;;;;;6190855;23;20008;-84
2022/06/06 13:54:01;;;;;;;3.22;0.93;;;;;;;;;;6191516;23;20024;-85
2022/06/06 13:56:39;;;;;;;2.70;1.00;;;;;;;;;;6190953;23;20000;-82
2022/06/06 13:59:15;;;;;;;3.25;1.13;;;;;;;;;;6217703;23;20036;-84
2022/06/06 14:01:45;;;;;;;2.95;1.13;;;;;;;;;;6217681;23;20001;-83
2022/06/06 14:04:11;;;;;;;1.80;1.00;;;;;;;;;;6190502;23;20012;-83
2022/06/06 14:06:56;;;;;;;2.22;1.20;;;;;;;;;;6191679;23;20017;-84
2022/06/06 14:09:42;;;;;;;3.15;1.10;;;;;;;;;;6191680;23;20005;-83
2022/06/06 14:12:18;;;;;;;2.33;1.00;;;;;;;;;;6195178;23;20011;-81
2022/06/06 14:14:44;;;;;;;3.22;1.00;;;;;;;;;;6194018;23;20004;-80
2022/06/06 14:17:11;;;;;;;2.25;0.93;;;;;;;;;;6191658;23;20418;-85
2022/06/06 14:19:41;;;;;;;1.60;0.88;;;;;;;;;;6192758;23;20064;-89
2022/06/06 14:22:08;;;;;;;3.58;1.10;;;;;;;;;;6191831;23;20005;-81
2022/06/06 14:24:38;;;;;;;2.05;1.08;;;;;;;;;;6191858;23;20008;-86
2022/06/06 14:27:06;;;;;;;2.28;0.95;;;;;;;;;;6191639;23;20016;-86
2022/06/06 14:29:37;;;;;;;3.17;1.25;;;;;;;;;;6193085;23;20036;-87
2022/06/06 14:32:24;;;;;;;3.70;0.90;;;;;;;;;;6191501;23;20422;-87
2022/06/06 14:34:52;;;;;;;2.78;0.82;;;;;;;;;;6191644;23;20036;-86
2022/06/06 14:37:25;;;;;;;2.45;0.90;;;;;;;;;;6218143;23;20023;-88
2022/06/06 14:39:52;;;;;;;3.17;1.00;;;;;;;;;;6191606;23;20062;-88
2022/06/06 14:42:39;;;;;;;2.13;0.90;;;;;;;;;;6191652;23;20020;-87
2022/06/06 14:45:13;;;;;;;2.90;1.00;;;;;;;;;;6216529;23;20008;-87
2022/06/06 14:47:51;;;;;;;1.88;0.98;;;;;;;;;;6191824;23;20015;-86
2022/06/06 14:53:14;;;;;;;3.05;0.88;;;;;;;;;;6217747;23;20027;-85
2022/06/06 14:55:43;;;;;;;1.63;0.80;;;;;;;;;;6192519;23;20071;-86
2022/06/06 14:58:11;;;;;;;3.42;1.00;;;;;;;;;;6217994;23;20465;-87
2022/06/06 15:00:38;;;;;;;1.40;0.88;;;;;;;;;;6191733;23;20009;-91
2022/06/06 15:03:09;;;;;;;1.95;0.93;;;;;;;;;;6190728;23;20077;-86
2022/06/06 15:05:36;;;;;;;1.25;0.70;;;;;;;;;;6191589;23;20023;-86
2022/06/06 15:08:13;;;;;;;1.30;0.80;;;;;;;;;;6191136;23;20329;-83
2022/06/06 15:10:42;;;;;;;2.90;0.88;;;;;;;;;;6190819;23;20031;-85
2022/06/06 15:13:08;;;;;;;2.13;0.85;;;;;;;;;;6190878;23;20011;-85
2022/06/06 15:15:36;;;;;;;2.15;0.80;;;;;;;;;;6217250;23;20005;-84
2022/06/06 15:18:02;;;;;;;3.05;0.95;;;;;;;;;;6217405;23;20001;-83
2022/06/06 15:20:30;;;;;;;3.10;0.98;;;;;;;;;;6190824;23;20008;-85
2022/06/06 15:23:21;;;;;;;2.03;0.77;;;;;;;;;;6191155;23;20004;-85
2022/06/06 15:26:22;;;;;;;2.67;0.90;;;;;;;;;;6180116;23;20092;-84
2022/06/06 15:28:49;;;;;;;2.08;0.93;;;;;;;;;;6095913;23;20077;-82
2022/06/06 15:31:33;;;;;;;10.07;1.52;;;;;;;;;;6166952;23;20067;-84
2022/06/06 15:34:24;;;;;;;3.63;1.08;;;;;;;;;;6189946;23;20013;-77
2022/06/06 15:37:00;;;;;;;3.85;0.90;;;;;;;;;;6190704;23;20035;-80
2022/06/06 15:39:34;;;;;;;4.40;0.98;;;;;;;;;;6217536;23;20012;-85
2022/06/06 15:42:10;;;;;;;2.03;1.08;;;;;;;;;;6187795;23;20026;-84
2022/06/06 15:45:07;;;;;;;1.77;0.90;;;;;;;;;;6190277;23;20008;-85